• Join FlightAware (Why Join?)
  • Login
  • US Flag 
10:02AM EDT


 

Airport Tracker/Info


-or-


 

Live Flight TrackerFlight Track Log ✈ JZA8474 ✈ 14-Jul-2013 ✈ CYCG - CYYC

Flight Track Log - Related Links

Times and Time Zones

All times are in EDT time to prevent confusion due to time zone crossing. See the JZA8474 flight status page for this flight to view local times or setup timezone preferences in your user account.

Time Position Orientation Groundspeed Altitude Reporting Facility
EDT Latitude Longitude Course Direction KTS MPH feet Rate Location/Type
03:22PM 49.5263 -117.1975 52° Northeast  Level FlightAware Approximate
03:23PM 49.5710 -117.1081 52° Northeast  Level FlightAware Approximate
03:24PM 49.6157 -117.0186 52° Northeast  Level FlightAware Approximate
03:25PM 49.6622 -116.9311 51° Northeast  Level FlightAware Approximate
03:25PM 49.4667 -117.3167 52° Northeast 210 242 11,100  Level Edmonton Center
03:26PM 49.7086 -116.8434 51° Northeast  Level FlightAware Approximate
03:26PM 49.5167 -117.2167 52° Northeast 220 253 12,100  Level Edmonton Center
03:27PM 49.7549 -116.7556 51° Northeast  Level FlightAware Approximate
03:27PM 49.5500 -117.1500 52° Northeast 220 253 13,100  Level Edmonton Center
03:28PM 49.8002 -116.6664 52° Northeast  Level FlightAware Approximate
03:28PM 49.5833 -117.0833 52° Northeast 220 253 13,900  Level Edmonton Center
03:29PM 49.8451 -116.5767 52° Northeast  Level FlightAware Approximate
03:29PM 49.6333 -116.9833 52° Northeast 230 265 14,900  Level Edmonton Center
03:30PM 49.8900 -116.4868 52° Northeast  Level FlightAware Approximate
03:30PM 49.6667 -116.9167 52° Northeast 240 276 15,700  Level Edmonton Center
03:31PM 49.9350 -116.3969 52° Northeast  Level FlightAware Approximate
03:31PM 49.7167 -116.8333 47° Northeast 240 276 16,600  Level Edmonton Center
03:32PM 49.7500 -116.7667 52° Northeast 250 288 17,400 840 Climbing Edmonton Center
03:33PM 49.8000 -116.6667 52° Northeast 250 288 18,300 780 Climbing Edmonton Center
03:34PM 49.8333 -116.5667 63° Northeast 250 288 19,000 720 Climbing Edmonton Center
03:35PM 49.8833 -116.5000 41° Northeast 250 288 19,800 600 Climbing Edmonton Center
03:36PM 49.9333 -116.4167 47° Northeast 250 288 20,300 540 Climbing Edmonton Center
03:37PM 49.9667 -116.3167 63° Northeast 250 288 20,900 300 Climbing Edmonton Center
03:38PM 50.0167 -116.2500 41° Northeast 260 299 21,000  Climbing Edmonton Center
03:39PM 50.0667 -116.1333 56° Northeast 280 322 21,000  Level Edmonton Center
03:40PM 50.1167 -116.0333 52° Northeast 300 345 21,000  Level Edmonton Center
03:41PM 50.1667 -115.9333 52° Northeast 300 345 21,000  Level Edmonton Center
03:42PM 50.2333 -115.8167 48° Northeast 300 345 21,000  Level Edmonton Center
03:43PM 50.2667 -115.7333 58° Northeast 290 334 21,000  Level Edmonton Center
03:44PM 50.3167 -115.6333 52° Northeast 270 311 21,000  Level Edmonton Center
03:45PM 50.3500 -115.5667 52° Northeast 250 288 21,000  Level Edmonton Center
03:46PM 50.4000 -115.4667 52° Northeast 250 288 21,000 -420 Level Edmonton Center
03:47PM 50.4500 -115.3667 52° Northeast 260 299 20,200 -840 Descending Edmonton Center
03:48PM 50.5000 -115.3000 40° Northeast 260 299 19,400 -900 Descending Edmonton Center
03:49PM 50.5333 -115.2000 62° Northeast 250 288 18,500 -900 Descending Edmonton Center
03:50PM 50.5833 -115.1000 52° Northeast 250 288 17,700 -960 Descending Edmonton Center
03:51PM 50.6167 -115.0000 62° Northeast 240 276 16,600 -1,080 Descending Edmonton Center
03:52PM 50.5833 -114.9667 148° Southeast 200 230 15,600 -780 Descending Edmonton Center
03:53PM 50.5833 -115.0333 270° West 160 184 15,100 -600 Descending Edmonton Center
03:54PM 50.6333 -114.9333 52° Northeast 220 253 14,500 -600 Descending Edmonton Center
03:55PM 50.6500 -114.8333 75° East 250 288 14,000 -300 Descending Edmonton Center
03:56PM 50.6667 -114.7167 77° East 250 288 14,000 -120 Level Edmonton Center
03:57PM 50.7000 -114.6167 62° Northeast 250 288 13,800 -780 Descending Edmonton Center
03:58PM 50.7333 -114.5333 58° Northeast 260 299 12,500 -1,200 Descending Edmonton Center
03:59PM 50.7667 -114.4167 66° East 270 311 11,400 -780 Descending Edmonton Center
04:00PM 50.8167 -114.3333 46° Northeast 250 288 11,000 -240 Descending Edmonton Center
04:01PM 50.9000 -114.3167 North 260 299 11,000 -300 Level Edmonton Center
04:02PM 50.9500 -114.2667 32° Northeast 260 299 10,500 -1,020 Descending Edmonton Center
04:03PM 51.0333 -114.2667 360° North 250 288 9,000 -1,260 Descending Edmonton Center
04:04PM 51.0833 -114.2833 348° North 230 265 8,000 -540 Descending Edmonton Center
04:05PM 51.1167 -114.3667 303° West 210 242 8,000 -360 Level Edmonton Center
04:06PM 51.1333 -114.4500 288° West 210 242 7,300 -540 Descending Edmonton Center
04:07PM 51.1833 -114.4333 12° North 220 253 7,000 -180 Descending Edmonton Center
04:08PM 51.2167 -114.3833 43° Northeast 210 242 7,000 -60 Level Edmonton Center
04:09PM 51.1833 -114.3000 123° Southeast 180 207 6,900 -300 Descending Edmonton Center
04:10PM 51.1500 -114.2333 129° Southeast 180 207 6,400 -540 Descending Edmonton Center